sensor_id;sensor_type;location;lat;lon;timestamp;P1;durP1;ratioP1;P2;durP2;ratioP2
9106;SDS011;4589;48.690;8.952;2022-12-29T00:02:14;1.90;;;1.70;;
9106;SDS011;4589;48.690;8.952;2022-12-29T00:04:41;2.13;;;1.90;;
9106;SDS011;4589;48.690;8.952;2022-12-29T00:07:06;1.90;;;1.60;;
9106;SDS011;4589;48.690;8.952;2022-12-29T00:09:32;2.50;;;1.83;;
9106;SDS011;4589;48.690;8.952;2022-12-29T00:11:58;2.70;;;1.97;;
9106;SDS011;4589;48.690;8.952;2022-12-29T00:14:24;1.90;;;1.80;;
9106;SDS011;4589;48.690;8.952;2022-12-29T00:17:19;2.37;;;1.83;;
9106;SDS011;4589;48.690;8.952;2022-12-29T00:19:45;3.47;;;1.90;;
9106;SDS011;4589;48.690;8.952;2022-12-29T00:22:29;2.67;;;2.10;;
9106;SDS011;4589;48.690;8.952;2022-12-29T00:25:14;2.00;;;1.80;;
9106;SDS011;4589;48.690;8.952;2022-12-29T00:27:58;3.40;;;1.73;;
9106;SDS011;4589;48.690;8.952;2022-12-29T00:30:43;4.10;;;1.90;;
9106;SDS011;4589;48.690;8.952;2022-12-29T00:33:31;2.53;;;1.70;;
9106;SDS011;4589;48.690;8.952;2022-12-29T00:36:21;2.53;;;1.67;;
9106;SDS011;4589;48.690;8.952;2022-12-29T00:38:49;6.23;;;1.80;;
9106;SDS011;4589;48.690;8.952;2022-12-29T00:41:35;3.47;;;2.00;;
9106;SDS011;4589;48.690;8.952;2022-12-29T00:44:19;1.70;;;1.27;;
9106;SDS011;4589;48.690;8.952;2022-12-29T00:46:45;2.33;;;1.93;;
9106;SDS011;4589;48.690;8.952;2022-12-29T00:49:12;3.00;;;2.07;;
9106;SDS011;4589;48.690;8.952;2022-12-29T00:52:06;2.00;;;1.83;;
9106;SDS011;4589;48.690;8.952;2022-12-29T00:54:34;2.23;;;1.77;;
9106;SDS011;4589;48.690;8.952;2022-12-29T00:57:02;9.10;;;2.57;;
9106;SDS011;4589;48.690;8.952;2022-12-29T00:59:28;2.60;;;2.00;;
9106;SDS011;4589;48.690;8.952;2022-12-29T01:01:54;1.97;;;1.60;;
9106;SDS011;4589;48.690;8.952;2022-12-29T01:04:21;3.63;;;1.70;;
9106;SDS011;4589;48.690;8.952;2022-12-29T01:06:47;2.07;;;1.67;;
9106;SDS011;4589;48.690;8.952;2022-12-29T01:09:13;4.97;;;2.13;;
9106;SDS011;4589;48.690;8.952;2022-12-29T01:11:58;2.77;;;1.50;;
9106;SDS011;4589;48.690;8.952;2022-12-29T01:14:24;2.13;;;1.93;;
9106;SDS011;4589;48.690;8.952;2022-12-29T01:16:50;1.80;;;1.70;;
9106;SDS011;4589;48.690;8.952;2022-12-29T01:19:17;2.47;;;1.67;;
9106;SDS011;4589;48.690;8.952;2022-12-29T01:21:43;2.70;;;1.67;;
9106;SDS011;4589;48.690;8.952;2022-12-29T01:24:08;2.30;;;1.80;;
9106;SDS011;4589;48.690;8.952;2022-12-29T01:26:34;2.00;;;1.70;;
9106;SDS011;4589;48.690;8.952;2022-12-29T01:29:00;5.70;;;1.57;;
9106;SDS011;4589;48.690;8.952;2022-12-29T01:31:26;3.20;;;2.90;;
9106;SDS011;4589;48.690;8.952;2022-12-29T01:33:52;2.03;;;1.70;;
9106;SDS011;4589;48.690;8.952;2022-12-29T01:36:18;2.70;;;1.83;;
9106;SDS011;4589;48.690;8.952;2022-12-29T01:38:44;1.63;;;1.53;;
9106;SDS011;4589;48.690;8.952;2022-12-29T01:41:11;2.10;;;1.50;;
9106;SDS011;4589;48.690;8.952;2022-12-29T01:43:48;2.90;;;2.53;;
9106;SDS011;4589;48.690;8.952;2022-12-29T01:46:24;2.00;;;1.80;;
9106;SDS011;4589;48.690;8.952;2022-12-29T01:48:59;1.90;;;1.70;;
9106;SDS011;4589;48.690;8.952;2022-12-29T01:51:39;3.47;;;1.87;;
9106;SDS011;4589;48.690;8.952;2022-12-29T01:54:10;1.50;;;1.40;;
9106;SDS011;4589;48.690;8.952;2022-12-29T01:56:43;2.63;;;1.57;;
9106;SDS011;4589;48.690;8.952;2022-12-29T01:59:11;1.90;;;1.70;;
9106;SDS011;4589;48.690;8.952;2022-12-29T02:01:40;1.73;;;1.60;;
9106;SDS011;4589;48.690;8.952;2022-12-29T02:04:06;2.13;;;1.47;;
9106;SDS011;4589;48.690;8.952;2022-12-29T02:06:40;1.50;;;1.40;;
9106;SDS011;4589;48.690;8.952;2022-12-29T02:09:11;1.93;;;1.30;;
9106;SDS011;4589;48.690;8.952;2022-12-29T02:11:36;2.00;;;1.50;;
9106;SDS011;4589;48.690;8.952;2022-12-29T02:14:08;2.80;;;1.57;;
9106;SDS011;4589;48.690;8.952;2022-12-29T02:16:55;2.10;;;1.90;;
9106;SDS011;4589;48.690;8.952;2022-12-29T02:25:23;6.20;;;1.70;;
9106;SDS011;4589;48.690;8.952;2022-12-29T02:30:40;5.63;;;1.60;;
9106;SDS011;4589;48.690;8.952;2022-12-29T02:39:10;1.60;;;1.50;;
9106;SDS011;4589;48.690;8.952;2022-12-29T02:42:02;2.10;;;1.57;;
9106;SDS011;4589;48.690;8.952;2022-12-29T02:44:47;3.33;;;1.57;;
9106;SDS011;4589;48.690;8.952;2022-12-29T02:50:49;2.00;;;1.80;;
9106;SDS011;4589;48.690;8.952;2022-12-29T02:53:19;1.50;;;1.20;;
9106;SDS011;4589;48.690;8.952;2022-12-29T02:56:05;2.40;;;1.33;;
9106;SDS011;4589;48.690;8.952;2022-12-29T02:58:31;2.37;;;1.50;;
9106;SDS011;4589;48.690;8.952;2022-12-29T03:08:55;2.27;;;1.60;;
9106;SDS011;4589;48.690;8.952;2022-12-29T03:11:46;1.60;;;1.50;;
9106;SDS011;4589;48.690;8.952;2022-12-29T03:17:57;1.83;;;1.50;;
9106;SDS011;4589;48.690;8.952;2022-12-29T03:23:12;1.70;;;1.20;;
9106;SDS011;4589;48.690;8.952;2022-12-29T03:25:39;2.90;;;1.73;;
9106;SDS011;4589;48.690;8.952;2022-12-29T03:28:18;3.43;;;1.63;;
9106;SDS011;4589;48.690;8.952;2022-12-29T03:30:51;2.40;;;1.50;;
9106;SDS011;4589;48.690;8.952;2022-12-29T03:33:23;2.03;;;1.50;;
9106;SDS011;4589;48.690;8.952;2022-12-29T03:35:50;2.90;;;1.50;;
9106;SDS011;4589;48.690;8.952;2022-12-29T03:38:38;1.60;;;1.27;;
9106;SDS011;4589;48.690;8.952;2022-12-29T03:41:11;2.80;;;1.57;;
9106;SDS011;4589;48.690;8.952;2022-12-29T03:43:41;1.93;;;1.60;;
9106;SDS011;4589;48.690;8.952;2022-12-29T03:46:07;1.60;;;1.50;;
9106;SDS011;4589;48.690;8.952;2022-12-29T03:48:33;5.40;;;1.53;;
9106;SDS011;4589;48.690;8.952;2022-12-29T03:50:59;2.37;;;1.57;;
9106;SDS011;4589;48.690;8.952;2022-12-29T03:53:25;1.80;;;1.37;;
9106;SDS011;4589;48.690;8.952;2022-12-29T03:55:51;2.00;;;1.40;;
9106;SDS011;4589;48.690;8.952;2022-12-29T03:58:17;3.20;;;1.30;;
9106;SDS011;4589;48.690;8.952;2022-12-29T04:00:43;3.33;;;1.73;;
9106;SDS011;4589;48.690;8.952;2022-12-29T04:03:09;5.07;;;2.20;;
9106;SDS011;4589;48.690;8.952;2022-12-29T04:05:34;1.40;;;1.30;;
9106;SDS011;4589;48.690;8.952;2022-12-29T04:08:00;2.33;;;1.50;;
9106;SDS011;4589;48.690;8.952;2022-12-29T04:10:26;1.77;;;1.30;;
9106;SDS011;4589;48.690;8.952;2022-12-29T04:12:52;1.60;;;1.50;;
9106;SDS011;4589;48.690;8.952;2022-12-29T04:15:18;2.57;;;1.80;;
9106;SDS011;4589;48.690;8.952;2022-12-29T04:17:44;3.77;;;1.80;;
9106;SDS011;4589;48.690;8.952;2022-12-29T04:20:10;2.07;;;1.57;;
9106;SDS011;4589;48.690;8.952;2022-12-29T04:23:04;2.53;;;1.80;;
9106;SDS011;4589;48.690;8.952;2022-12-29T04:25:31;2.40;;;1.60;;
9106;SDS011;4589;48.690;8.952;2022-12-29T04:27:57;3.00;;;1.70;;
9106;SDS011;4589;48.690;8.952;2022-12-29T04:30:23;1.50;;;1.40;;
9106;SDS011;4589;48.690;8.952;2022-12-29T04:32:49;1.50;;;1.40;;
9106;SDS011;4589;48.690;8.952;2022-12-29T04:35:15;2.60;;;1.67;;
9106;SDS011;4589;48.690;8.952;2022-12-29T04:37:41;2.97;;;1.80;;
9106;SDS011;4589;48.690;8.952;2022-12-29T04:40:07;5.00;;;1.77;;
9106;SDS011;4589;48.690;8.952;2022-12-29T04:42:33;1.80;;;1.60;;
9106;SDS011;4589;48.690;8.952;2022-12-29T04:44:59;3.50;;;1.50;;
9106;SDS011;4589;48.690;8.952;2022-12-29T04:47:25;2.93;;;1.73;;
9106;SDS011;4589;48.690;8.952;2022-12-29T04:49:51;2.80;;;1.53;;
9106;SDS011;4589;48.690;8.952;2022-12-29T04:52:16;2.30;;;2.10;;
9106;SDS011;4589;48.690;8.952;2022-12-29T04:54:42;4.53;;;1.83;;
9106;SDS011;4589;48.690;8.952;2022-12-29T04:57:08;4.73;;;2.00;;
9106;SDS011;4589;48.690;8.952;2022-12-29T04:59:34;3.13;;;1.90;;
9106;SDS011;4589;48.690;8.952;2022-12-29T05:02:00;8.73;;;1.90;;
9106;SDS011;4589;48.690;8.952;2022-12-29T05:04:26;2.33;;;2.13;;
9106;SDS011;4589;48.690;8.952;2022-12-29T05:06:52;1.73;;;1.53;;
9106;SDS011;4589;48.690;8.952;2022-12-29T05:09:18;4.30;;;2.20;;
9106;SDS011;4589;48.690;8.952;2022-12-29T05:11:44;2.57;;;2.33;;
9106;SDS011;4589;48.690;8.952;2022-12-29T05:14:10;3.07;;;1.70;;
9106;SDS011;4589;48.690;8.952;2022-12-29T05:16:35;5.33;;;2.13;;
9106;SDS011;4589;48.690;8.952;2022-12-29T05:19:01;1.77;;;1.63;;
9106;SDS011;4589;48.690;8.952;2022-12-29T05:21:27;3.67;;;1.80;;
9106;SDS011;4589;48.690;8.952;2022-12-29T05:23:53;2.10;;;1.90;;
9106;SDS011;4589;48.690;8.952;2022-12-29T05:26:19;3.80;;;2.10;;
9106;SDS011;4589;48.690;8.952;2022-12-29T05:28:45;2.13;;;1.70;;
9106;SDS011;4589;48.690;8.952;2022-12-29T05:31:11;3.13;;;1.80;;
9106;SDS011;4589;48.690;8.952;2022-12-29T05:33:37;3.40;;;2.23;;
9106;SDS011;4589;48.690;8.952;2022-12-29T05:36:07;1.87;;;1.73;;
9106;SDS011;4589;48.690;8.952;2022-12-29T05:38:33;3.67;;;1.80;;
9106;SDS011;4589;48.690;8.952;2022-12-29T05:41:00;2.67;;;2.30;;
9106;SDS011;4589;48.690;8.952;2022-12-29T05:43:25;2.17;;;1.73;;
9106;SDS011;4589;48.690;8.952;2022-12-29T05:45:51;2.30;;;1.60;;
9106;SDS011;4589;48.690;8.952;2022-12-29T05:48:17;4.43;;;1.80;;
9106;SDS011;4589;48.690;8.952;2022-12-29T05:50:46;2.90;;;1.83;;
9106;SDS011;4589;48.690;8.952;2022-12-29T05:53:15;2.03;;;1.83;;
9106;SDS011;4589;48.690;8.952;2022-12-29T05:55:41;10.33;;;1.67;;
9106;SDS011;4589;48.690;8.952;2022-12-29T05:58:08;5.30;;;1.80;;
9106;SDS011;4589;48.690;8.952;2022-12-29T06:00:34;1.87;;;1.53;;
9106;SDS011;4589;48.690;8.952;2022-12-29T06:02:59;1.80;;;1.70;;
9106;SDS011;4589;48.690;8.952;2022-12-29T06:05:25;1.63;;;1.53;;
9106;SDS011;4589;48.690;8.952;2022-12-29T06:07:51;3.40;;;1.93;;
9106;SDS011;4589;48.690;8.952;2022-12-29T06:10:17;2.63;;;1.73;;
9106;SDS011;4589;48.690;8.952;2022-12-29T06:12:43;3.23;;;1.67;;
9106;SDS011;4589;48.690;8.952;2022-12-29T06:15:09;2.87;;;1.90;;
9106;SDS011;4589;48.690;8.952;2022-12-29T06:17:35;3.53;;;1.80;;
9106;SDS011;4589;48.690;8.952;2022-12-29T06:20:00;2.73;;;1.57;;
9106;SDS011;4589;48.690;8.952;2022-12-29T06:22:26;4.77;;;2.20;;
9106;SDS011;4589;48.690;8.952;2022-12-29T06:24:52;3.83;;;1.70;;
9106;SDS011;4589;48.690;8.952;2022-12-29T06:27:18;1.90;;;1.70;;
9106;SDS011;4589;48.690;8.952;2022-12-29T06:29:44;5.40;;;1.93;;
9106;SDS011;4589;48.690;8.952;2022-12-29T06:32:11;2.10;;;1.90;;
9106;SDS011;4589;48.690;8.952;2022-12-29T06:34:37;1.70;;;1.60;;
9106;SDS011;4589;48.690;8.952;2022-12-29T06:37:03;2.33;;;1.50;;
9106;SDS011;4589;48.690;8.952;2022-12-29T06:39:28;2.40;;;1.90;;
9106;SDS011;4589;48.690;8.952;2022-12-29T06:41:54;2.37;;;2.10;;
9106;SDS011;4589;48.690;8.952;2022-12-29T06:44:20;4.53;;;2.17;;
9106;SDS011;4589;48.690;8.952;2022-12-29T06:46:46;2.00;;;1.80;;
9106;SDS011;4589;48.690;8.952;2022-12-29T06:49:13;3.73;;;2.07;;
9106;SDS011;4589;48.690;8.952;2022-12-29T06:51:38;11.03;;;6.20;;
9106;SDS011;4589;48.690;8.952;2022-12-29T06:54:04;3.23;;;2.90;;
9106;SDS011;4589;48.690;8.952;2022-12-29T06:56:30;2.03;;;1.70;;
9106;SDS011;4589;48.690;8.952;2022-12-29T06:58:56;1.93;;;1.73;;
9106;SDS011;4589;48.690;8.952;2022-12-29T07:01:25;2.33;;;1.70;;
9106;SDS011;4589;48.690;8.952;2022-12-29T07:03:51;1.77;;;1.50;;
9106;SDS011;4589;48.690;8.952;2022-12-29T07:06:17;2.47;;;1.90;;
9106;SDS011;4589;48.690;8.952;2022-12-29T07:08:42;2.87;;;1.50;;
9106;SDS011;4589;48.690;8.952;2022-12-29T07:11:08;1.67;;;1.57;;
9106;SDS011;4589;48.690;8.952;2022-12-29T07:13:35;2.67;;;1.70;;
9106;SDS011;4589;48.690;8.952;2022-12-29T07:16:07;2.23;;;1.80;;
9106;SDS011;4589;48.690;8.952;2022-12-29T07:18:34;2.33;;;1.80;;
9106;SDS011;4589;48.690;8.952;2022-12-29T07:20:59;4.63;;;1.97;;
9106;SDS011;4589;48.690;8.952;2022-12-29T07:23:25;2.90;;;2.23;;
9106;SDS011;4589;48.690;8.952;2022-12-29T07:26:05;2.00;;;1.80;;
9106;SDS011;4589;48.690;8.952;2022-12-29T07:28:32;2.30;;;2.03;;
9106;SDS011;4589;48.690;8.952;2022-12-29T07:30:59;2.43;;;1.70;;
9106;SDS011;4589;48.690;8.952;2022-12-29T07:33:25;3.10;;;2.30;;
9106;SDS011;4589;48.690;8.952;2022-12-29T07:35:51;2.27;;;2.07;;
9106;SDS011;4589;48.690;8.952;2022-12-29T07:38:17;3.40;;;1.80;;
9106;SDS011;4589;48.690;8.952;2022-12-29T07:40:42;2.40;;;1.93;;
9106;SDS011;4589;48.690;8.952;2022-12-29T07:43:08;2.30;;;1.83;;
9106;SDS011;4589;48.690;8.952;2022-12-29T07:45:34;3.53;;;1.80;;
9106;SDS011;4589;48.690;8.952;2022-12-29T07:48:00;2.77;;;1.70;;
9106;SDS011;4589;48.690;8.952;2022-12-29T07:50:27;4.07;;;1.70;;
9106;SDS011;4589;48.690;8.952;2022-12-29T07:52:53;4.20;;;2.17;;
9106;SDS011;4589;48.690;8.952;2022-12-29T07:55:19;2.63;;;1.83;;
9106;SDS011;4589;48.690;8.952;2022-12-29T07:57:45;3.57;;;1.87;;
9106;SDS011;4589;48.690;8.952;2022-12-29T08:00:11;2.07;;;1.87;;
9106;SDS011;4589;48.690;8.952;2022-12-29T08:02:37;2.53;;;1.87;;
9106;SDS011;4589;48.690;8.952;2022-12-29T08:05:03;3.00;;;1.80;;
9106;SDS011;4589;48.690;8.952;2022-12-29T08:07:29;2.40;;;1.90;;
9106;SDS011;4589;48.690;8.952;2022-12-29T08:09:55;3.77;;;1.90;;
9106;SDS011;4589;48.690;8.952;2022-12-29T08:12:21;2.30;;;1.80;;
9106;SDS011;4589;48.690;8.952;2022-12-29T08:14:46;3.77;;;1.93;;
9106;SDS011;4589;48.690;8.952;2022-12-29T08:17:12;2.80;;;1.90;;
9106;SDS011;4589;48.690;8.952;2022-12-29T08:19:38;2.80;;;1.80;;
9106;SDS011;4589;48.690;8.952;2022-12-29T08:22:04;3.67;;;2.17;;
9106;SDS011;4589;48.690;8.952;2022-12-29T08:24:31;3.10;;;1.53;;
9106;SDS011;4589;48.690;8.952;2022-12-29T08:26:57;6.27;;;1.70;;
9106;SDS011;4589;48.690;8.952;2022-12-29T08:29:23;2.30;;;1.90;;
9106;SDS011;4589;48.690;8.952;2022-12-29T08:31:48;2.00;;;1.73;;
9106;SDS011;4589;48.690;8.952;2022-12-29T08:34:14;2.40;;;2.10;;
9106;SDS011;4589;48.690;8.952;2022-12-29T08:36:40;1.97;;;1.57;;
9106;SDS011;4589;48.690;8.952;2022-12-29T08:39:06;1.83;;;1.63;;
9106;SDS011;4589;48.690;8.952;2022-12-29T08:41:32;3.57;;;1.83;;
9106;SDS011;4589;48.690;8.952;2022-12-29T08:43:58;2.23;;;1.93;;
9106;SDS011;4589;48.690;8.952;2022-12-29T08:46:24;2.23;;;1.77;;
9106;SDS011;4589;48.690;8.952;2022-12-29T08:48:50;4.47;;;1.90;;
9106;SDS011;4589;48.690;8.952;2022-12-29T08:51:16;1.97;;;1.77;;
9106;SDS011;4589;48.690;8.952;2022-12-29T08:53:42;3.97;;;1.97;;
9106;SDS011;4589;48.690;8.952;2022-12-29T08:56:08;3.70;;;1.67;;
9106;SDS011;4589;48.690;8.952;2022-12-29T08:58:36;2.33;;;1.70;;
9106;SDS011;4589;48.690;8.952;2022-12-29T09:01:02;2.67;;;1.50;;
9106;SDS011;4589;48.690;8.952;2022-12-29T09:03:28;2.17;;;1.70;;
9106;SDS011;4589;48.690;8.952;2022-12-29T09:05:54;1.80;;;1.60;;
9106;SDS011;4589;48.690;8.952;2022-12-29T09:08:21;3.17;;;1.80;;
9106;SDS011;4589;48.690;8.952;2022-12-29T09:10:47;5.00;;;1.77;;
9106;SDS011;4589;48.690;8.952;2022-12-29T09:13:13;2.00;;;1.60;;
9106;SDS011;4589;48.690;8.952;2022-12-29T09:15:39;1.73;;;1.63;;
9106;SDS011;4589;48.690;8.952;2022-12-29T09:18:06;3.20;;;1.50;;
9106;SDS011;4589;48.690;8.952;2022-12-29T09:20:32;2.70;;;1.60;;
9106;SDS011;4589;48.690;8.952;2022-12-29T09:22:59;3.37;;;1.80;;
9106;SDS011;4589;48.690;8.952;2022-12-29T09:25:25;2.73;;;1.50;;
9106;SDS011;4589;48.690;8.952;2022-12-29T09:27:51;2.20;;;1.50;;
9106;SDS011;4589;48.690;8.952;2022-12-29T09:30:19;2.53;;;1.83;;
9106;SDS011;4589;48.690;8.952;2022-12-29T09:32:46;2.53;;;1.70;;
9106;SDS011;4589;48.690;8.952;2022-12-29T09:35:13;4.87;;;1.70;;
9106;SDS011;4589;48.690;8.952;2022-12-29T09:37:39;1.70;;;1.50;;
9106;SDS011;4589;48.690;8.952;2022-12-29T09:40:06;3.60;;;1.73;;
9106;SDS011;4589;48.690;8.952;2022-12-29T09:43:15;3.20;;;1.70;;
9106;SDS011;4589;48.690;8.952;2022-12-29T09:48:33;2.50;;;1.50;;
9106;SDS011;4589;48.690;8.952;2022-12-29T09:51:07;2.07;;;1.63;;
9106;SDS011;4589;48.690;8.952;2022-12-29T09:53:38;2.03;;;1.60;;
9106;SDS011;4589;48.690;8.952;2022-12-29T09:56:10;2.97;;;1.60;;
9106;SDS011;4589;48.690;8.952;2022-12-29T09:58:41;1.77;;;1.50;;
9106;SDS011;4589;48.690;8.952;2022-12-29T10:03:46;1.37;;;1.20;;
9106;SDS011;4589;48.690;8.952;2022-12-29T10:06:21;3.40;;;1.50;;
9106;SDS011;4589;48.690;8.952;2022-12-29T10:24:37;2.13;;;1.90;;
9106;SDS011;4589;48.690;8.952;2022-12-29T10:27:03;2.07;;;1.60;;
9106;SDS011;4589;48.690;8.952;2022-12-29T10:29:37;3.97;;;2.33;;
9106;SDS011;4589;48.690;8.952;2022-12-29T10:33:00;1.50;;;1.40;;
9106;SDS011;4589;48.690;8.952;2022-12-29T10:35:17;2.30;;;1.83;;
9106;SDS011;4589;48.690;8.952;2022-12-29T10:38:01;2.30;;;1.90;;
9106;SDS011;4589;48.690;8.952;2022-12-29T10:40:56;3.70;;;1.60;;
9106;SDS011;4589;48.690;8.952;2022-12-29T10:43:29;1.80;;;1.47;;
9106;SDS011;4589;48.690;8.952;2022-12-29T10:46:02;2.00;;;1.60;;
9106;SDS011;4589;48.690;8.952;2022-12-29T10:48:32;2.60;;;1.50;;
9106;SDS011;4589;48.690;8.952;2022-12-29T10:51:00;1.70;;;1.50;;
9106;SDS011;4589;48.690;8.952;2022-12-29T10:53:38;1.97;;;1.53;;
9106;SDS011;4589;48.690;8.952;2022-12-29T10:56:52;2.53;;;1.87;;
9106;SDS011;4589;48.690;8.952;2022-12-29T10:59:16;8.40;;;2.50;;
9106;SDS011;4589;48.690;8.952;2022-12-29T11:01:49;4.80;;;2.10;;
9106;SDS011;4589;48.690;8.952;2022-12-29T11:07:27;3.37;;;1.47;;
9106;SDS011;4589;48.690;8.952;2022-12-29T11:09:54;1.73;;;1.63;;
9106;SDS011;4589;48.690;8.952;2022-12-29T11:12:23;2.10;;;1.53;;
9106;SDS011;4589;48.690;8.952;2022-12-29T11:17:42;1.43;;;1.33;;
9106;SDS011;4589;48.690;8.952;2022-12-29T11:22:53;3.33;;;1.90;;
9106;SDS011;4589;48.690;8.952;2022-12-29T11:25:19;5.33;;;2.10;;
9106;SDS011;4589;48.690;8.952;2022-12-29T11:27:55;6.57;;;1.90;;
9106;SDS011;4589;48.690;8.952;2022-12-29T11:30:24;3.07;;;1.93;;
9106;SDS011;4589;48.690;8.952;2022-12-29T11:32:52;1.60;;;1.50;;
9106;SDS011;4589;48.690;8.952;2022-12-29T11:37:57;3.40;;;1.77;;
9106;SDS011;4589;48.690;8.952;2022-12-29T11:40:23;2.10;;;1.63;;
9106;SDS011;4589;48.690;8.952;2022-12-29T11:45:33;3.40;;;1.63;;
9106;SDS011;4589;48.690;8.952;2022-12-29T11:50:34;2.83;;;1.77;;
9106;SDS011;4589;48.690;8.952;2022-12-29T11:53:17;2.07;;;1.87;;
9106;SDS011;4589;48.690;8.952;2022-12-29T11:55:53;2.00;;;1.60;;
9106;SDS011;4589;48.690;8.952;2022-12-29T11:58:27;2.07;;;1.50;;
9106;SDS011;4589;48.690;8.952;2022-12-29T12:00:54;3.20;;;1.73;;
9106;SDS011;4589;48.690;8.952;2022-12-29T12:03:23;1.43;;;1.30;;
9106;SDS011;4589;48.690;8.952;2022-12-29T12:05:58;2.57;;;1.80;;
9106;SDS011;4589;48.690;8.952;2022-12-29T12:11:17;2.07;;;1.60;;
9106;SDS011;4589;48.690;8.952;2022-12-29T12:16:38;5.97;;;2.00;;
9106;SDS011;4589;48.690;8.952;2022-12-29T12:22:13;2.13;;;1.73;;
9106;SDS011;4589;48.690;8.952;2022-12-29T12:24:57;3.40;;;2.17;;
9106;SDS011;4589;48.690;8.952;2022-12-29T12:35:11;2.50;;;2.30;;
9106;SDS011;4589;48.690;8.952;2022-12-29T12:37:46;4.20;;;2.20;;
9106;SDS011;4589;48.690;8.952;2022-12-29T12:40:35;4.90;;;2.27;;
9106;SDS011;4589;48.690;8.952;2022-12-29T12:57:27;3.00;;;1.87;;
9106;SDS011;4589;48.690;8.952;2022-12-29T13:00:18;2.10;;;1.80;;
9106;SDS011;4589;48.690;8.952;2022-12-29T13:19:09;2.60;;;1.80;;
9106;SDS011;4589;48.690;8.952;2022-12-29T13:24:18;2.53;;;2.33;;
9106;SDS011;4589;48.690;8.952;2022-12-29T13:38:10;2.27;;;1.90;;
9106;SDS011;4589;48.690;8.952;2022-12-29T13:40:47;2.30;;;1.83;;
9106;SDS011;4589;48.690;8.952;2022-12-29T13:43:17;7.13;;;2.07;;
9106;SDS011;4589;48.690;8.952;2022-12-29T13:45:45;3.43;;;2.20;;
9106;SDS011;4589;48.690;8.952;2022-12-29T13:48:17;3.20;;;2.23;;
9106;SDS011;4589;48.690;8.952;2022-12-29T13:50:52;3.10;;;2.40;;
9106;SDS011;4589;48.690;8.952;2022-12-29T13:53:26;2.23;;;2.03;;
9106;SDS011;4589;48.690;8.952;2022-12-29T13:58:46;3.80;;;2.20;;
9106;SDS011;4589;48.690;8.952;2022-12-29T14:01:22;2.30;;;2.00;;
9106;SDS011;4589;48.690;8.952;2022-12-29T14:03:59;2.30;;;2.10;;
9106;SDS011;4589;48.690;8.952;2022-12-29T14:06:31;4.50;;;2.63;;
9106;SDS011;4589;48.690;8.952;2022-12-29T14:09:02;3.00;;;1.97;;
9106;SDS011;4589;48.690;8.952;2022-12-29T14:11:33;2.30;;;2.10;;
9106;SDS011;4589;48.690;8.952;2022-12-29T14:17:08;1.97;;;1.77;;
9106;SDS011;4589;48.690;8.952;2022-12-29T14:19:38;4.40;;;2.10;;
9106;SDS011;4589;48.690;8.952;2022-12-29T14:22:06;3.07;;;2.13;;
9106;SDS011;4589;48.690;8.952;2022-12-29T14:27:00;2.70;;;2.20;;
9106;SDS011;4589;48.690;8.952;2022-12-29T14:29:42;2.63;;;2.20;;
9106;SDS011;4589;48.690;8.952;2022-12-29T14:34:53;2.03;;;1.83;;
9106;SDS011;4589;48.690;8.952;2022-12-29T14:37:24;3.20;;;1.97;;
9106;SDS011;4589;48.690;8.952;2022-12-29T14:42:45;3.37;;;1.90;;
9106;SDS011;4589;48.690;8.952;2022-12-29T14:47:48;5.10;;;2.20;;
9106;SDS011;4589;48.690;8.952;2022-12-29T14:50:22;2.10;;;1.87;;
9106;SDS011;4589;48.690;8.952;2022-12-29T14:55:28;2.30;;;2.10;;
9106;SDS011;4589;48.690;8.952;2022-12-29T14:58:02;3.30;;;1.60;;
9106;SDS011;4589;48.690;8.952;2022-12-29T15:00:31;2.93;;;2.00;;
9106;SDS011;4589;48.690;8.952;2022-12-29T15:03:10;3.10;;;1.70;;
9106;SDS011;4589;48.690;8.952;2022-12-29T15:05:41;2.53;;;2.27;;
9106;SDS011;4589;48.690;8.952;2022-12-29T15:08:10;3.70;;;2.00;;
9106;SDS011;4589;48.690;8.952;2022-12-29T15:11:01;2.30;;;1.90;;
9106;SDS011;4589;48.690;8.952;2022-12-29T15:13:25;4.77;;;2.30;;
9106;SDS011;4589;48.690;8.952;2022-12-29T15:16:01;3.57;;;1.87;;
9106;SDS011;4589;48.690;8.952;2022-12-29T15:18:31;3.40;;;2.03;;
9106;SDS011;4589;48.690;8.952;2022-12-29T15:21:02;2.60;;;1.90;;
9106;SDS011;4589;48.690;8.952;2022-12-29T15:23:30;2.37;;;2.00;;
9106;SDS011;4589;48.690;8.952;2022-12-29T15:26:05;3.53;;;2.10;;
9106;SDS011;4589;48.690;8.952;2022-12-29T15:31:11;4.57;;;2.70;;
9106;SDS011;4589;48.690;8.952;2022-12-29T15:33:40;2.07;;;1.87;;
9106;SDS011;4589;48.690;8.952;2022-12-29T15:36:11;2.20;;;2.00;;
9106;SDS011;4589;48.690;8.952;2022-12-29T15:38:44;4.27;;;1.93;;
9106;SDS011;4589;48.690;8.952;2022-12-29T15:41:32;3.90;;;1.90;;
9106;SDS011;4589;48.690;8.952;2022-12-29T15:44:37;2.47;;;2.00;;
9106;SDS011;4589;48.690;8.952;2022-12-29T15:47:11;4.43;;;2.07;;
9106;SDS011;4589;48.690;8.952;2022-12-29T15:49:43;5.43;;;2.00;;
9106;SDS011;4589;48.690;8.952;2022-12-29T15:52:09;5.20;;;2.90;;
9106;SDS011;4589;48.690;8.952;2022-12-29T15:54:36;7.80;;;4.30;;
9106;SDS011;4589;48.690;8.952;2022-12-29T15:57:03;6.93;;;4.10;;
9106;SDS011;4589;48.690;8.952;2022-12-29T15:59:44;3.07;;;2.30;;
9106;SDS011;4589;48.690;8.952;2022-12-29T16:02:13;3.07;;;2.70;;
9106;SDS011;4589;48.690;8.952;2022-12-29T16:04:38;3.10;;;2.43;;
9106;SDS011;4589;48.690;8.952;2022-12-29T16:07:05;7.43;;;2.30;;
9106;SDS011;4589;48.690;8.952;2022-12-29T16:09:47;2.90;;;1.90;;
9106;SDS011;4589;48.690;8.952;2022-12-29T16:12:18;2.70;;;2.10;;
9106;SDS011;4589;48.690;8.952;2022-12-29T16:14:50;1.80;;;1.30;;
9106;SDS011;4589;48.690;8.952;2022-12-29T16:17:23;3.87;;;1.87;;
9106;SDS011;4589;48.690;8.952;2022-12-29T16:19:58;2.07;;;1.33;;
9106;SDS011;4589;48.690;8.952;2022-12-29T16:22:31;1.77;;;1.60;;
9106;SDS011;4589;48.690;8.952;2022-12-29T16:25:08;2.40;;;1.53;;
9106;SDS011;4589;48.690;8.952;2022-12-29T16:27:38;2.00;;;1.60;;
9106;SDS011;4589;48.690;8.952;2022-12-29T16:30:07;1.63;;;1.53;;
9106;SDS011;4589;48.690;8.952;2022-12-29T16:32:49;1.97;;;1.80;;
9106;SDS011;4589;48.690;8.952;2022-12-29T16:35:18;3.60;;;1.97;;
9106;SDS011;4589;48.690;8.952;2022-12-29T16:40:49;1.80;;;1.70;;
9106;SDS011;4589;48.690;8.952;2022-12-29T16:43:37;2.20;;;1.87;;
9106;SDS011;4589;48.690;8.952;2022-12-29T16:46:26;2.40;;;2.00;;
9106;SDS011;4589;48.690;8.952;2022-12-29T16:48:55;3.60;;;2.80;;
9106;SDS011;4589;48.690;8.952;2022-12-29T16:51:23;3.50;;;2.93;;
9106;SDS011;4589;48.690;8.952;2022-12-29T16:54:00;3.17;;;2.60;;
9106;SDS011;4589;48.690;8.952;2022-12-29T16:56:28;2.80;;;2.60;;
9106;SDS011;4589;48.690;8.952;2022-12-29T16:59:06;3.50;;;3.07;;
9106;SDS011;4589;48.690;8.952;2022-12-29T17:01:41;2.73;;;2.53;;
9106;SDS011;4589;48.690;8.952;2022-12-29T17:04:11;3.50;;;2.97;;
9106;SDS011;4589;48.690;8.952;2022-12-29T17:06:37;4.37;;;3.80;;
9106;SDS011;4589;48.690;8.952;2022-12-29T17:09:17;5.00;;;4.23;;
9106;SDS011;4589;48.690;8.952;2022-12-29T17:11:45;6.37;;;3.27;;
9106;SDS011;4589;48.690;8.952;2022-12-29T17:17:10;2.47;;;2.17;;
9106;SDS011;4589;48.690;8.952;2022-12-29T17:19:45;3.60;;;2.53;;
9106;SDS011;4589;48.690;8.952;2022-12-29T17:22:18;4.13;;;2.30;;
9106;SDS011;4589;48.690;8.952;2022-12-29T17:24:51;4.90;;;2.90;;
9106;SDS011;4589;48.690;8.952;2022-12-29T17:27:23;8.33;;;3.00;;
9106;SDS011;4589;48.690;8.952;2022-12-29T17:30:02;4.33;;;3.30;;
9106;SDS011;4589;48.690;8.952;2022-12-29T17:32:30;3.23;;;2.93;;
9106;SDS011;4589;48.690;8.952;2022-12-29T17:34:57;4.20;;;2.97;;
9106;SDS011;4589;48.690;8.952;2022-12-29T17:39:48;4.43;;;4.03;;
9106;SDS011;4589;48.690;8.952;2022-12-29T17:42:14;17.63;;;13.43;;
9106;SDS011;4589;48.690;8.952;2022-12-29T17:44:42;7.77;;;6.40;;
9106;SDS011;4589;48.690;8.952;2022-12-29T17:47:10;13.30;;;9.03;;
9106;SDS011;4589;48.690;8.952;2022-12-29T17:49:36;16.77;;;9.47;;
9106;SDS011;4589;48.690;8.952;2022-12-29T17:52:02;12.47;;;8.00;;
9106;SDS011;4589;48.690;8.952;2022-12-29T17:54:29;15.17;;;8.83;;
9106;SDS011;4589;48.690;8.952;2022-12-29T17:56:56;10.37;;;9.30;;
9106;SDS011;4589;48.690;8.952;2022-12-29T17:59:22;9.10;;;7.47;;
9106;SDS011;4589;48.690;8.952;2022-12-29T18:01:49;10.77;;;9.50;;
9106;SDS011;4589;48.690;8.952;2022-12-29T18:04:18;13.87;;;10.97;;
9106;SDS011;4589;48.690;8.952;2022-12-29T18:06:44;20.63;;;14.57;;
9106;SDS011;4589;48.690;8.952;2022-12-29T18:09:10;12.20;;;9.43;;
9106;SDS011;4589;48.690;8.952;2022-12-29T18:11:38;9.27;;;7.47;;
9106;SDS011;4589;48.690;8.952;2022-12-29T18:14:14;6.40;;;5.37;;
9106;SDS011;4589;48.690;8.952;2022-12-29T18:16:41;6.57;;;4.70;;